Cassville, MO

11:10 PM CST on December 17, 2014 (GMT -0600)
Farm Road 2100 | Change Station
CLOSE
Current Station
Personal Weather Station
Location: Wheaton, MO
Elevation: 1335 ft
Nearby Weather Stations
Active Advisory: Winter Weather Advisory

Elev 1335 ft 36.79 °N, 94.07 °W | Updated 4 seconds ago

Overcast
Overcast
32.8 °F
Feels Like 25 °F
N
9.0
Wind Variable Wind from ESE
Gusts 13.0 mph

Today
High -- | Low -- °F
--% Chance of Precip.
Yesterday
High -- | Low -- °F
Precip. -- in
7:21 AM 5:01 PM
Waning Crescent, 17% visible
Pressure 30.18 in
Visibility 10.0 miles
Clouds Scattered Clouds 500 ft
Overcast 3200 ft
Windchill 25 °F
Dew Point 32 °F
Humidity 95%
Rainfall 0.53 in
Snow Depth Not available.
UV 0 out of 12
Pollen 3.60 out of 12
Air Quality Not available.
Flu Activity Not available.
METAR KHFJ 180455Z AUTO 12008KT 10SM SCT005 OVC032 00/00 A3018 RMK AO2

More Conditions Fewer Conditions

Pressure 30.18 in
Visibility 10.0 miles
Clouds Scattered Clouds 500 ft
Overcast 3200 ft
Windchill 25 °F
Dew Point 32 °F
Humidity 95%
Rainfall 0.53 in
Snow Depth Not available.
UV 0 out of 12
Pollen 3.60 out of 12
Air Quality Not available.
Flu Activity Not available.
METAR KHFJ 180455Z AUTO 12008KT 10SM SCT005 OVC032 00/00 A3018 RMK AO2

More Conditions Fewer Conditions

10-Day Weather Forecast

Almanac

Astronomy

Dec. 17, 2014 Rise Set
Actual Time
Civil Twilight
Nautical Twilight
Astronomical Twilight
Moon
Length of Visible Light
Length of Day
Tomorrow will be .
, % of the Moon is Illuminated

Today's Extremes

State Highs State Lows

Community

WunderPhotos

Upload Photos

1,778,887 photos uploaded!

WunderBlogs® & News

Nearby

Air Quality

  Air Quality AQ Index Pollutant
Not available.

Snow Depth

Station Depth Elevation

Earthquake Activity

City Distance Mag. Time & Date
Minimum magnitude displayed is 2.5.

Coastal Water Temperatures

Place Temperature

Nearby Weather Stations